sensor_id;sensor_type;location;lat;lon;timestamp;P1;durP1;ratioP1;P2;durP2;ratioP2
74963;SDS011;63521;51.900;4.748;2023-03-04T00:00:28;2.03;;;1.13;;
74963;SDS011;63521;51.900;4.748;2023-03-04T00:02:54;3.45;;;1.35;;
74963;SDS011;63521;51.900;4.748;2023-03-04T00:05:19;2.13;;;1.38;;
74963;SDS011;63521;51.900;4.748;2023-03-04T00:07:45;4.68;;;1.20;;
74963;SDS011;63521;51.900;4.748;2023-03-04T00:10:10;3.97;;;1.35;;
74963;SDS011;63521;51.900;4.748;2023-03-04T00:12:36;3.05;;;1.45;;
74963;SDS011;63521;51.900;4.748;2023-03-04T00:15:02;2.75;;;1.42;;
74963;SDS011;63521;51.900;4.748;2023-03-04T00:17:28;3.30;;;1.40;;
74963;SDS011;63521;51.900;4.748;2023-03-04T00:19:55;3.13;;;1.38;;
74963;SDS011;63521;51.900;4.748;2023-03-04T00:22:21;2.03;;;1.23;;
74963;SDS011;63521;51.900;4.748;2023-03-04T00:24:47;3.20;;;1.20;;
74963;SDS011;63521;51.900;4.748;2023-03-04T00:27:12;2.17;;;1.15;;
74963;SDS011;63521;51.900;4.748;2023-03-04T00:29:37;2.85;;;1.20;;
74963;SDS011;63521;51.900;4.748;2023-03-04T00:32:03;2.70;;;1.50;;
74963;SDS011;63521;51.900;4.748;2023-03-04T00:34:28;3.13;;;1.20;;
74963;SDS011;63521;51.900;4.748;2023-03-04T00:36:54;2.45;;;1.15;;
74963;SDS011;63521;51.900;4.748;2023-03-04T00:39:25;3.70;;;1.30;;
74963;SDS011;63521;51.900;4.748;2023-03-04T00:41:51;3.60;;;1.50;;
74963;SDS011;63521;51.900;4.748;2023-03-04T00:44:17;4.32;;;1.60;;
74963;SDS011;63521;51.900;4.748;2023-03-04T00:46:42;2.90;;;1.30;;
74963;SDS011;63521;51.900;4.748;2023-03-04T00:49:08;2.28;;;1.38;;
74963;SDS011;63521;51.900;4.748;2023-03-04T00:51:33;1.40;;;1.20;;
74963;SDS011;63521;51.900;4.748;2023-03-04T00:53:59;1.90;;;1.20;;
74963;SDS011;63521;51.900;4.748;2023-03-04T00:56:24;1.20;;;1.00;;
74963;SDS011;63521;51.900;4.748;2023-03-04T00:58:49;2.90;;;1.20;;
74963;SDS011;63521;51.900;4.748;2023-03-04T01:01:15;2.50;;;1.33;;
74963;SDS011;63521;51.900;4.748;2023-03-04T01:03:40;2.90;;;1.20;;
74963;SDS011;63521;51.900;4.748;2023-03-04T01:06:06;4.57;;;1.40;;
74963;SDS011;63521;51.900;4.748;2023-03-04T01:08:32;2.20;;;1.27;;
74963;SDS011;63521;51.900;4.748;2023-03-04T01:10:58;3.47;;;1.20;;
74963;SDS011;63521;51.900;4.748;2023-03-04T01:13:23;3.20;;;1.13;;
74963;SDS011;63521;51.900;4.748;2023-03-04T01:15:48;2.90;;;1.00;;
74963;SDS011;63521;51.900;4.748;2023-03-04T01:18:14;2.13;;;1.13;;
74963;SDS011;63521;51.900;4.748;2023-03-04T01:20:39;2.28;;;1.13;;
74963;SDS011;63521;51.900;4.748;2023-03-04T01:23:04;2.13;;;1.00;;
74963;SDS011;63521;51.900;4.748;2023-03-04T01:25:30;2.80;;;1.10;;
74963;SDS011;63521;51.900;4.748;2023-03-04T01:27:55;2.58;;;1.17;;
74963;SDS011;63521;51.900;4.748;2023-03-04T01:30:21;2.72;;;1.40;;
74963;SDS011;63521;51.900;4.748;2023-03-04T01:32:46;3.60;;;1.10;;
74963;SDS011;63521;51.900;4.748;2023-03-04T01:35:12;2.28;;;1.17;;
74963;SDS011;63521;51.900;4.748;2023-03-04T01:37:37;3.45;;;1.10;;
74963;SDS011;63521;51.900;4.748;2023-03-04T01:40:02;3.38;;;1.30;;
74963;SDS011;63521;51.900;4.748;2023-03-04T01:42:31;5.20;;;1.42;;
74963;SDS011;63521;51.900;4.748;2023-03-04T01:44:58;4.28;;;1.27;;
74963;SDS011;63521;51.900;4.748;2023-03-04T01:47:24;2.85;;;1.33;;
74963;SDS011;63521;51.900;4.748;2023-03-04T01:49:54;2.40;;;1.10;;
74963;SDS011;63521;51.900;4.748;2023-03-04T01:52:20;2.80;;;1.20;;
74963;SDS011;63521;51.900;4.748;2023-03-04T01:54:46;5.18;;;1.40;;
74963;SDS011;63521;51.900;4.748;2023-03-04T01:57:22;1.70;;;1.08;;
74963;SDS011;63521;51.900;4.748;2023-03-04T02:02:43;2.13;;;1.08;;
74963;SDS011;63521;51.900;4.748;2023-03-04T02:05:09;3.17;;;1.40;;
74963;SDS011;63521;51.900;4.748;2023-03-04T02:07:34;6.10;;;1.17;;
74963;SDS011;63521;51.900;4.748;2023-03-04T02:10:00;2.70;;;1.35;;
74963;SDS011;63521;51.900;4.748;2023-03-04T02:12:25;1.92;;;1.15;;
74963;SDS011;63521;51.900;4.748;2023-03-04T02:14:51;6.47;;;1.10;;
74963;SDS011;63521;51.900;4.748;2023-03-04T02:17:16;4.43;;;1.20;;
74963;SDS011;63521;51.900;4.748;2023-03-04T02:19:47;4.25;;;1.30;;
74963;SDS011;63521;51.900;4.748;2023-03-04T02:22:14;3.92;;;1.25;;
74963;SDS011;63521;51.900;4.748;2023-03-04T02:24:49;3.50;;;1.40;;
74963;SDS011;63521;51.900;4.748;2023-03-04T02:27:17;2.47;;;0.95;;
74963;SDS011;63521;51.900;4.748;2023-03-04T02:29:42;3.22;;;1.30;;
74963;SDS011;63521;51.900;4.748;2023-03-04T02:32:09;3.33;;;1.50;;
74963;SDS011;63521;51.900;4.748;2023-03-04T02:34:35;2.45;;;1.20;;
74963;SDS011;63521;51.900;4.748;2023-03-04T02:37:02;3.65;;;1.30;;
74963;SDS011;63521;51.900;4.748;2023-03-04T02:41:56;3.15;;;1.20;;
74963;SDS011;63521;51.900;4.748;2023-03-04T02:44:29;2.08;;;1.00;;
74963;SDS011;63521;51.900;4.748;2023-03-04T02:46:56;3.05;;;1.55;;
74963;SDS011;63521;51.900;4.748;2023-03-04T02:49:23;2.20;;;1.00;;
74963;SDS011;63521;51.900;4.748;2023-03-04T02:51:50;7.28;;;1.50;;
74963;SDS011;63521;51.900;4.748;2023-03-04T02:54:32;1.80;;;1.50;;
74963;SDS011;63521;51.900;4.748;2023-03-04T02:56:59;3.10;;;1.27;;
74963;SDS011;63521;51.900;4.748;2023-03-04T02:59:26;4.10;;;1.20;;
74963;SDS011;63521;51.900;4.748;2023-03-04T03:01:52;1.88;;;1.27;;
74963;SDS011;63521;51.900;4.748;2023-03-04T03:04:17;4.00;;;1.10;;
74963;SDS011;63521;51.900;4.748;2023-03-04T03:06:45;2.63;;;1.23;;
74963;SDS011;63521;51.900;4.748;2023-03-04T03:09:10;3.70;;;1.10;;
74963;SDS011;63521;51.900;4.748;2023-03-04T03:11:36;1.88;;;1.17;;
74963;SDS011;63521;51.900;4.748;2023-03-04T03:14:01;1.92;;;1.10;;
74963;SDS011;63521;51.900;4.748;2023-03-04T03:16:27;1.85;;;1.40;;
74963;SDS011;63521;51.900;4.748;2023-03-04T03:18:52;2.85;;;1.10;;
74963;SDS011;63521;51.900;4.748;2023-03-04T03:21:18;2.47;;;0.90;;
74963;SDS011;63521;51.900;4.748;2023-03-04T03:23:43;2.72;;;1.10;;
74963;SDS011;63521;51.900;4.748;2023-03-04T03:26:08;2.03;;;1.25;;
74963;SDS011;63521;51.900;4.748;2023-03-04T03:28:34;3.28;;;1.33;;
74963;SDS011;63521;51.900;4.748;2023-03-04T03:30:59;1.10;;;1.00;;
74963;SDS011;63521;51.900;4.748;2023-03-04T03:33:25;2.13;;;1.35;;
74963;SDS011;63521;51.900;4.748;2023-03-04T03:35:52;1.20;;;1.00;;
74963;SDS011;63521;51.900;4.748;2023-03-04T03:38:17;1.73;;;1.08;;
74963;SDS011;63521;51.900;4.748;2023-03-04T03:40:43;1.58;;;1.20;;
74963;SDS011;63521;51.900;4.748;2023-03-04T03:43:08;1.65;;;1.00;;
74963;SDS011;63521;51.900;4.748;2023-03-04T03:45:33;3.17;;;1.20;;
74963;SDS011;63521;51.900;4.748;2023-03-04T03:47:59;3.33;;;1.40;;
74963;SDS011;63521;51.900;4.748;2023-03-04T03:50:24;2.50;;;1.42;;
74963;SDS011;63521;51.900;4.748;2023-03-04T03:52:50;2.53;;;1.30;;
74963;SDS011;63521;51.900;4.748;2023-03-04T03:55:15;1.63;;;1.20;;
74963;SDS011;63521;51.900;4.748;2023-03-04T03:57:41;3.28;;;1.10;;
74963;SDS011;63521;51.900;4.748;2023-03-04T04:00:07;1.75;;;1.00;;
74963;SDS011;63521;51.900;4.748;2023-03-04T04:02:33;1.13;;;1.00;;
74963;SDS011;63521;51.900;4.748;2023-03-04T04:04:58;2.55;;;1.40;;
74963;SDS011;63521;51.900;4.748;2023-03-04T04:07:24;4.53;;;1.50;;
74963;SDS011;63521;51.900;4.748;2023-03-04T04:09:49;2.75;;;1.10;;
74963;SDS011;63521;51.900;4.748;2023-03-04T04:12:15;2.28;;;1.17;;
74963;SDS011;63521;51.900;4.748;2023-03-04T04:14:41;1.10;;;1.00;;
74963;SDS011;63521;51.900;4.748;2023-03-04T04:17:07;1.60;;;1.10;;
74963;SDS011;63521;51.900;4.748;2023-03-04T04:19:33;2.63;;;1.60;;
74963;SDS011;63521;51.900;4.748;2023-03-04T04:21:59;1.80;;;0.90;;
74963;SDS011;63521;51.900;4.748;2023-03-04T04:24:25;2.38;;;1.10;;
74963;SDS011;63521;51.900;4.748;2023-03-04T04:26:50;2.67;;;1.35;;
74963;SDS011;63521;51.900;4.748;2023-03-04T04:29:16;3.25;;;1.10;;
74963;SDS011;63521;51.900;4.748;2023-03-04T04:31:41;1.77;;;1.10;;
74963;SDS011;63521;51.900;4.748;2023-03-04T04:34:07;2.67;;;1.20;;
74963;SDS011;63521;51.900;4.748;2023-03-04T04:36:32;5.43;;;1.13;;
74963;SDS011;63521;51.900;4.748;2023-03-04T04:38:58;1.98;;;1.17;;
74963;SDS011;63521;51.900;4.748;2023-03-04T04:41:24;2.10;;;1.20;;
74963;SDS011;63521;51.900;4.748;2023-03-04T04:43:52;3.20;;;1.33;;
74963;SDS011;63521;51.900;4.748;2023-03-04T04:46:18;1.02;;;0.90;;
74963;SDS011;63521;51.900;4.748;2023-03-04T04:48:44;1.77;;;1.23;;
74963;SDS011;63521;51.900;4.748;2023-03-04T04:51:10;2.53;;;1.27;;
74963;SDS011;63521;51.900;4.748;2023-03-04T04:53:35;1.88;;;1.13;;
74963;SDS011;63521;51.900;4.748;2023-03-04T04:56:07;2.90;;;1.58;;
74963;SDS011;63521;51.900;4.748;2023-03-04T04:58:43;2.30;;;1.30;;
74963;SDS011;63521;51.900;4.748;2023-03-04T05:01:08;3.38;;;1.50;;
74963;SDS011;63521;51.900;4.748;2023-03-04T05:03:34;2.72;;;1.20;;
74963;SDS011;63521;51.900;4.748;2023-03-04T05:06:02;2.33;;;1.10;;
74963;SDS011;63521;51.900;4.748;2023-03-04T05:08:28;2.95;;;1.13;;
74963;SDS011;63521;51.900;4.748;2023-03-04T05:10:53;2.45;;;1.38;;
74963;SDS011;63521;51.900;4.748;2023-03-04T05:13:19;3.33;;;1.20;;
74963;SDS011;63521;51.900;4.748;2023-03-04T05:15:45;1.52;;;1.30;;
74963;SDS011;63521;51.900;4.748;2023-03-04T05:18:11;2.83;;;1.30;;
74963;SDS011;63521;51.900;4.748;2023-03-04T05:20:37;2.03;;;1.15;;
74963;SDS011;63521;51.900;4.748;2023-03-04T05:23:02;1.40;;;1.10;;
74963;SDS011;63521;51.900;4.748;2023-03-04T05:25:27;2.17;;;1.20;;
74963;SDS011;63521;51.900;4.748;2023-03-04T05:27:53;3.05;;;1.33;;
74963;SDS011;63521;51.900;4.748;2023-03-04T05:30:18;2.40;;;1.35;;
74963;SDS011;63521;51.900;4.748;2023-03-04T05:32:44;1.38;;;1.20;;
74963;SDS011;63521;51.900;4.748;2023-03-04T05:35:09;1.70;;;1.10;;
74963;SDS011;63521;51.900;4.748;2023-03-04T05:37:34;2.17;;;0.88;;
74963;SDS011;63521;51.900;4.748;2023-03-04T05:40:00;1.48;;;1.20;;
74963;SDS011;63521;51.900;4.748;2023-03-04T05:42:25;1.85;;;1.02;;
74963;SDS011;63521;51.900;4.748;2023-03-04T05:44:50;2.38;;;1.55;;
74963;SDS011;63521;51.900;4.748;2023-03-04T05:47:16;2.70;;;1.30;;
74963;SDS011;63521;51.900;4.748;2023-03-04T05:49:41;2.50;;;1.40;;
74963;SDS011;63521;51.900;4.748;2023-03-04T05:52:08;2.00;;;1.00;;
74963;SDS011;63521;51.900;4.748;2023-03-04T05:54:34;4.15;;;1.13;;
74963;SDS011;63521;51.900;4.748;2023-03-04T05:56:59;2.08;;;1.15;;
74963;SDS011;63521;51.900;4.748;2023-03-04T05:59:24;3.20;;;1.15;;
74963;SDS011;63521;51.900;4.748;2023-03-04T06:01:50;2.17;;;0.95;;
74963;SDS011;63521;51.900;4.748;2023-03-04T06:04:15;2.28;;;1.17;;
74963;SDS011;63521;51.900;4.748;2023-03-04T06:06:41;2.03;;;1.20;;
74963;SDS011;63521;51.900;4.748;2023-03-04T06:09:06;1.63;;;0.90;;
74963;SDS011;63521;51.900;4.748;2023-03-04T06:11:32;1.63;;;0.95;;
74963;SDS011;63521;51.900;4.748;2023-03-04T06:13:57;3.00;;;1.23;;
74963;SDS011;63521;51.900;4.748;2023-03-04T06:16:22;1.77;;;0.93;;
74963;SDS011;63521;51.900;4.748;2023-03-04T06:18:48;1.95;;;1.13;;
74963;SDS011;63521;51.900;4.748;2023-03-04T06:21:13;2.33;;;1.20;;
74963;SDS011;63521;51.900;4.748;2023-03-04T06:23:38;1.25;;;0.95;;
74963;SDS011;63521;51.900;4.748;2023-03-04T06:26:06;6.47;;;1.40;;
74963;SDS011;63521;51.900;4.748;2023-03-04T06:28:33;1.58;;;0.85;;
74963;SDS011;63521;51.900;4.748;2023-03-04T06:30:58;1.17;;;1.00;;
74963;SDS011;63521;51.900;4.748;2023-03-04T06:33:24;1.27;;;1.10;;
74963;SDS011;63521;51.900;4.748;2023-03-04T06:35:54;1.15;;;0.90;;
74963;SDS011;63521;51.900;4.748;2023-03-04T06:38:20;1.85;;;1.30;;
74963;SDS011;63521;51.900;4.748;2023-03-04T06:40:45;2.17;;;1.10;;
74963;SDS011;63521;51.900;4.748;2023-03-04T06:43:10;1.33;;;0.88;;
74963;SDS011;63521;51.900;4.748;2023-03-04T07:04:00;1.83;;;1.17;;
74963;SDS011;63521;51.900;4.748;2023-03-04T07:06:27;2.38;;;1.00;;
74963;SDS011;63521;51.900;4.748;2023-03-04T07:08:52;0.90;;;0.90;;
74963;SDS011;63521;51.900;4.748;2023-03-04T07:11:18;2.15;;;0.90;;
74963;SDS011;63521;51.900;4.748;2023-03-04T07:13:44;1.42;;;1.00;;
74963;SDS011;63521;51.900;4.748;2023-03-04T07:16:11;2.60;;;0.98;;
74963;SDS011;63521;51.900;4.748;2023-03-04T07:18:38;1.42;;;1.05;;
74963;SDS011;63521;51.900;4.748;2023-03-04T07:21:04;2.70;;;0.90;;
74963;SDS011;63521;51.900;4.748;2023-03-04T07:23:30;1.27;;;1.10;;
74963;SDS011;63521;51.900;4.748;2023-03-04T07:25:56;0.88;;;0.85;;
74963;SDS011;63521;51.900;4.748;2023-03-04T07:28:21;2.47;;;1.10;;
74963;SDS011;63521;51.900;4.748;2023-03-04T07:30:47;2.10;;;0.90;;
74963;SDS011;63521;51.900;4.748;2023-03-04T07:33:12;4.07;;;1.10;;
74963;SDS011;63521;51.900;4.748;2023-03-04T07:35:38;1.50;;;1.00;;
74963;SDS011;63521;51.900;4.748;2023-03-04T07:38:04;1.20;;;0.93;;
74963;SDS011;63521;51.900;4.748;2023-03-04T07:40:29;0.95;;;0.82;;
74963;SDS011;63521;51.900;4.748;2023-03-04T07:42:55;1.23;;;0.93;;
74963;SDS011;63521;51.900;4.748;2023-03-04T07:45:21;1.77;;;1.00;;
74963;SDS011;63521;51.900;4.748;2023-03-04T07:47:47;1.15;;;1.00;;
74963;SDS011;63521;51.900;4.748;2023-03-04T07:50:12;1.52;;;0.70;;
74963;SDS011;63521;51.900;4.748;2023-03-04T07:52:39;1.85;;;0.95;;
74963;SDS011;63521;51.900;4.748;2023-03-04T07:55:05;1.70;;;0.73;;
74963;SDS011;63521;51.900;4.748;2023-03-04T07:57:31;0.85;;;0.82;;
74963;SDS011;63521;51.900;4.748;2023-03-04T07:59:56;2.58;;;1.10;;
74963;SDS011;63521;51.900;4.748;2023-03-04T08:02:21;1.08;;;0.95;;
74963;SDS011;63521;51.900;4.748;2023-03-04T08:04:47;1.92;;;1.00;;
74963;SDS011;63521;51.900;4.748;2023-03-04T08:07:12;2.10;;;0.90;;
74963;SDS011;63521;51.900;4.748;2023-03-04T08:09:37;1.40;;;0.93;;
74963;SDS011;63521;51.900;4.748;2023-03-04T08:12:03;0.80;;;0.75;;
74963;SDS011;63521;51.900;4.748;2023-03-04T08:14:28;1.00;;;0.90;;
74963;SDS011;63521;51.900;4.748;2023-03-04T08:16:54;2.72;;;1.13;;
74963;SDS011;63521;51.900;4.748;2023-03-04T08:19:20;1.10;;;1.00;;
74963;SDS011;63521;51.900;4.748;2023-03-04T08:21:46;1.35;;;0.80;;
74963;SDS011;63521;51.900;4.748;2023-03-04T08:24:11;1.15;;;1.05;;
74963;SDS011;63521;51.900;4.748;2023-03-04T08:26:38;1.77;;;1.10;;
74963;SDS011;63521;51.900;4.748;2023-03-04T08:29:06;1.20;;;1.05;;
74963;SDS011;63521;51.900;4.748;2023-03-04T08:31:32;1.35;;;0.82;;
74963;SDS011;63521;51.900;4.748;2023-03-04T08:33:58;0.63;;;0.50;;
74963;SDS011;63521;51.900;4.748;2023-03-04T08:36:23;1.55;;;0.75;;
74963;SDS011;63521;51.900;4.748;2023-03-04T08:39:16;0.82;;;0.70;;
74963;SDS011;63521;51.900;4.748;2023-03-04T08:41:42;1.10;;;0.93;;
74963;SDS011;63521;51.900;4.748;2023-03-04T08:44:08;1.65;;;1.00;;
74963;SDS011;63521;51.900;4.748;2023-03-04T08:46:34;1.38;;;0.90;;
74963;SDS011;63521;51.900;4.748;2023-03-04T08:49:00;1.63;;;1.02;;
74963;SDS011;63521;51.900;4.748;2023-03-04T08:51:26;0.70;;;0.70;;
74963;SDS011;63521;51.900;4.748;2023-03-04T08:53:51;0.70;;;0.70;;
74963;SDS011;63521;51.900;4.748;2023-03-04T08:56:17;1.58;;;0.95;;
74963;SDS011;63521;51.900;4.748;2023-03-04T08:58:42;1.60;;;1.00;;
74963;SDS011;63521;51.900;4.748;2023-03-04T09:01:08;1.35;;;0.90;;
74963;SDS011;63521;51.900;4.748;2023-03-04T09:03:35;1.38;;;0.75;;
74963;SDS011;63521;51.900;4.748;2023-03-04T09:06:01;1.27;;;1.00;;
74963;SDS011;63521;51.900;4.748;2023-03-04T09:08:27;1.80;;;0.80;;
74963;SDS011;63521;51.900;4.748;2023-03-04T09:10:53;1.90;;;0.90;;
74963;SDS011;63521;51.900;4.748;2023-03-04T09:13:19;2.40;;;0.80;;
74963;SDS011;63521;51.900;4.748;2023-03-04T09:15:46;1.15;;;0.95;;
74963;SDS011;63521;51.900;4.748;2023-03-04T09:18:12;2.17;;;1.00;;
74963;SDS011;63521;51.900;4.748;2023-03-04T09:20:38;4.03;;;0.80;;
74963;SDS011;63521;51.900;4.748;2023-03-04T09:23:04;1.75;;;0.70;;
74963;SDS011;63521;51.900;4.748;2023-03-04T09:25:30;0.70;;;0.70;;
74963;SDS011;63521;51.900;4.748;2023-03-04T09:27:55;1.25;;;0.65;;
74963;SDS011;63521;51.900;4.748;2023-03-04T09:30:20;1.48;;;1.00;;
74963;SDS011;63521;51.900;4.748;2023-03-04T09:32:46;1.60;;;0.63;;
74963;SDS011;63521;51.900;4.748;2023-03-04T09:35:11;2.08;;;0.90;;
74963;SDS011;63521;51.900;4.748;2023-03-04T09:37:37;1.02;;;0.85;;
74963;SDS011;63521;51.900;4.748;2023-03-04T09:40:03;1.58;;;0.80;;
74963;SDS011;63521;51.900;4.748;2023-03-04T09:45:01;0.55;;;0.55;;
74963;SDS011;63521;51.900;4.748;2023-03-04T09:47:28;0.77;;;0.70;;
74963;SDS011;63521;51.900;4.748;2023-03-04T09:49:57;0.60;;;0.60;;
74963;SDS011;63521;51.900;4.748;2023-03-04T10:00:13;1.38;;;0.70;;
74963;SDS011;63521;51.900;4.748;2023-03-04T10:05:31;1.27;;;0.77;;
74963;SDS011;63521;51.900;4.748;2023-03-04T10:08:15;0.68;;;0.68;;
74963;SDS011;63521;51.900;4.748;2023-03-04T10:10:53;0.73;;;0.70;;
74963;SDS011;63521;51.900;4.748;2023-03-04T10:13:22;0.98;;;0.50;;
74963;SDS011;63521;51.900;4.748;2023-03-04T10:15:52;0.65;;;0.65;;
74963;SDS011;63521;51.900;4.748;2023-03-04T10:18:23;0.65;;;0.57;;
74963;SDS011;63521;51.900;4.748;2023-03-04T10:25:56;0.75;;;0.47;;
74963;SDS011;63521;51.900;4.748;2023-03-04T10:28:25;1.52;;;0.70;;
74963;SDS011;63521;51.900;4.748;2023-03-04T10:31:03;0.70;;;0.70;;
74963;SDS011;63521;51.900;4.748;2023-03-04T10:33:37;1.48;;;0.70;;
74963;SDS011;63521;51.900;4.748;2023-03-04T10:38:30;0.50;;;0.50;;
74963;SDS011;63521;51.900;4.748;2023-03-04T10:40:57;0.55;;;0.40;;
74963;SDS011;63521;51.900;4.748;2023-03-04T10:43:23;0.73;;;0.70;;
74963;SDS011;63521;51.900;4.748;2023-03-04T10:45:51;2.60;;;0.68;;
74963;SDS011;63521;51.900;4.748;2023-03-04T10:48:20;0.38;;;0.38;;
74963;SDS011;63521;51.900;4.748;2023-03-04T10:50:49;1.02;;;0.77;;
74963;SDS011;63521;51.900;4.748;2023-03-04T10:53:30;1.48;;;0.68;;
74963;SDS011;63521;51.900;4.748;2023-03-04T10:55:58;0.57;;;0.45;;
74963;SDS011;63521;51.900;4.748;2023-03-04T10:58:23;0.93;;;0.70;;
74963;SDS011;63521;51.900;4.748;2023-03-04T11:01:01;0.50;;;0.50;;
74963;SDS011;63521;51.900;4.748;2023-03-04T11:03:35;1.20;;;0.70;;
74963;SDS011;63521;51.900;4.748;2023-03-04T11:08:39;0.52;;;0.52;;
74963;SDS011;63521;51.900;4.748;2023-03-04T11:11:24;1.05;;;0.60;;
74963;SDS011;63521;51.900;4.748;2023-03-04T11:13:55;0.80;;;0.80;;
74963;SDS011;63521;51.900;4.748;2023-03-04T11:16:25;1.00;;;0.70;;
74963;SDS011;63521;51.900;4.748;2023-03-04T11:18:52;0.60;;;0.60;;
74963;SDS011;63521;51.900;4.748;2023-03-04T11:21:20;1.63;;;0.60;;
74963;SDS011;63521;51.900;4.748;2023-03-04T11:23:55;1.35;;;0.95;;
74963;SDS011;63521;51.900;4.748;2023-03-04T11:29:27;0.52;;;0.52;;
74963;SDS011;63521;51.900;4.748;2023-03-04T11:31:55;1.15;;;0.90;;
74963;SDS011;63521;51.900;4.748;2023-03-04T11:40:09;0.77;;;0.60;;
74963;SDS011;63521;51.900;4.748;2023-03-04T11:43:00;1.55;;;0.80;;
74963;SDS011;63521;51.900;4.748;2023-03-04T11:48:08;1.63;;;0.70;;
74963;SDS011;63521;51.900;4.748;2023-03-04T11:50:53;0.90;;;0.73;;
74963;SDS011;63521;51.900;4.748;2023-03-04T12:01:54;1.77;;;0.80;;
74963;SDS011;63521;51.900;4.748;2023-03-04T12:04:27;0.85;;;0.65;;
74963;SDS011;63521;51.900;4.748;2023-03-04T12:07:21;2.15;;;0.60;;
74963;SDS011;63521;51.900;4.748;2023-03-04T12:18:49;1.27;;;0.60;;
74963;SDS011;63521;51.900;4.748;2023-03-04T12:24:23;0.90;;;0.52;;
74963;SDS011;63521;51.900;4.748;2023-03-04T12:32:34;0.60;;;0.35;;
74963;SDS011;63521;51.900;4.748;2023-03-04T12:40:13;1.30;;;0.60;;
74963;SDS011;63521;51.900;4.748;2023-03-04T12:45:27;0.80;;;0.55;;
74963;SDS011;63521;51.900;4.748;2023-03-04T12:53:42;1.48;;;0.60;;
74963;SDS011;63521;51.900;4.748;2023-03-04T12:59:01;1.83;;;0.82;;
74963;SDS011;63521;51.900;4.748;2023-03-04T13:01:28;1.13;;;0.70;;
74963;SDS011;63521;51.900;4.748;2023-03-04T13:04:05;1.85;;;0.70;;
74963;SDS011;63521;51.900;4.748;2023-03-04T13:06:41;2.70;;;0.90;;
74963;SDS011;63521;51.900;4.748;2023-03-04T13:14:46;2.15;;;0.90;;
74963;SDS011;63521;51.900;4.748;2023-03-04T13:23:03;1.75;;;1.20;;
74963;SDS011;63521;51.900;4.748;2023-03-04T13:25:47;0.80;;;0.80;;
74963;SDS011;63521;51.900;4.748;2023-03-04T13:28:18;2.03;;;1.00;;
74963;SDS011;63521;51.900;4.748;2023-03-04T13:43:39;1.55;;;0.95;;
74963;SDS011;63521;51.900;4.748;2023-03-04T13:59:01;1.77;;;0.93;;
74963;SDS011;63521;51.900;4.748;2023-03-04T14:01:48;0.90;;;0.77;;
74963;SDS011;63521;51.900;4.748;2023-03-04T14:07:15;1.80;;;1.05;;
74963;SDS011;63521;51.900;4.748;2023-03-04T14:09:59;2.05;;;0.98;;
74963;SDS011;63521;51.900;4.748;2023-03-04T14:12:35;2.17;;;0.80;;
74963;SDS011;63521;51.900;4.748;2023-03-04T14:15:03;3.88;;;1.13;;
74963;SDS011;63521;51.900;4.748;2023-03-04T14:17:45;1.30;;;0.95;;
74963;SDS011;63521;51.900;4.748;2023-03-04T14:22:58;2.58;;;1.10;;
74963;SDS011;63521;51.900;4.748;2023-03-04T14:25:32;1.80;;;0.88;;
74963;SDS011;63521;51.900;4.748;2023-03-04T14:28:03;1.13;;;1.02;;
74963;SDS011;63521;51.900;4.748;2023-03-04T14:30:36;1.23;;;0.93;;
74963;SDS011;63521;51.900;4.748;2023-03-04T14:33:04;1.42;;;1.00;;
74963;SDS011;63521;51.900;4.748;2023-03-04T14:35:31;2.85;;;1.20;;
74963;SDS011;63521;51.900;4.748;2023-03-04T14:37:58;1.27;;;1.08;;
74963;SDS011;63521;51.900;4.748;2023-03-04T14:40:27;1.20;;;0.95;;
74963;SDS011;63521;51.900;4.748;2023-03-04T14:43:04;2.55;;;0.93;;
74963;SDS011;63521;51.900;4.748;2023-03-04T14:45:35;1.17;;;0.85;;
74963;SDS011;63521;51.900;4.748;2023-03-04T14:48:03;2.42;;;1.02;;
74963;SDS011;63521;51.900;4.748;2023-03-04T14:50:30;3.30;;;1.00;;
74963;SDS011;63521;51.900;4.748;2023-03-04T14:53:03;1.75;;;0.90;;
74963;SDS011;63521;51.900;4.748;2023-03-04T14:55:31;0.95;;;0.90;;
74963;SDS011;63521;51.900;4.748;2023-03-04T15:00:33;0.80;;;0.73;;
74963;SDS011;63521;51.900;4.748;2023-03-04T15:03:01;3.22;;;0.93;;
74963;SDS011;63521;51.900;4.748;2023-03-04T15:05:29;4.25;;;1.25;;
74963;SDS011;63521;51.900;4.748;2023-03-04T15:08:05;1.17;;;0.90;;
74963;SDS011;63521;51.900;4.748;2023-03-04T15:10:51;2.92;;;0.95;;
74963;SDS011;63521;51.900;4.748;2023-03-04T15:13:18;0.88;;;0.80;;
74963;SDS011;63521;51.900;4.748;2023-03-04T15:16:21;1.88;;;0.77;;
74963;SDS011;63521;51.900;4.748;2023-03-04T15:18:55;1.10;;;0.68;;
74963;SDS011;63521;51.900;4.748;2023-03-04T15:21:44;1.98;;;0.73;;
74963;SDS011;63521;51.900;4.748;2023-03-04T15:24:09;1.50;;;0.98;;
74963;SDS011;63521;51.900;4.748;2023-03-04T15:26:39;2.10;;;0.90;;
74963;SDS011;63521;51.900;4.748;2023-03-04T15:29:16;1.15;;;0.88;;
74963;SDS011;63521;51.900;4.748;2023-03-04T15:31:42;0.82;;;0.80;;
74963;SDS011;63521;51.900;4.748;2023-03-04T15:34:12;3.80;;;0.90;;
74963;SDS011;63521;51.900;4.748;2023-03-04T15:36:38;1.67;;;0.75;;
74963;SDS011;63521;51.900;4.748;2023-03-04T15:39:04;1.50;;;1.00;;
74963;SDS011;63521;51.900;4.748;2023-03-04T15:41:30;2.13;;;1.58;;
74963;SDS011;63521;51.900;4.748;2023-03-04T15:43:55;2.30;;;0.82;;
74963;SDS011;63521;51.900;4.748;2023-03-04T15:46:21;1.42;;;0.70;;
74963;SDS011;63521;51.900;4.748;2023-03-04T15:48:46;2.42;;;0.82;;
74963;SDS011;63521;51.900;4.748;2023-03-04T15:51:13;4.97;;;0.90;;
74963;SDS011;63521;51.900;4.748;2023-03-04T15:53:45;1.48;;;0.50;;
74963;SDS011;63521;51.900;4.748;2023-03-04T15:56:13;2.67;;;1.08;;
74963;SDS011;63521;51.900;4.748;2023-03-04T15:58:41;1.30;;;1.05;;
74963;SDS011;63521;51.900;4.748;2023-03-04T16:01:07;3.20;;;1.05;;
74963;SDS011;63521;51.900;4.748;2023-03-04T16:03:35;1.13;;;0.82;;
74963;SDS011;63521;51.900;4.748;2023-03-04T16:06:00;1.45;;;0.70;;
74963;SDS011;63521;51.900;4.748;2023-03-04T16:08:25;4.25;;;0.90;;
74963;SDS011;63521;51.900;4.748;2023-03-04T16:10:51;1.52;;;1.00;;
74963;SDS011;63521;51.900;4.748;2023-03-04T16:13:19;3.45;;;1.33;;
74963;SDS011;63521;51.900;4.748;2023-03-04T16:15:45;1.83;;;0.88;;
74963;SDS011;63521;51.900;4.748;2023-03-04T16:18:11;1.25;;;0.70;;
74963;SDS011;63521;51.900;4.748;2023-03-04T16:20:38;1.65;;;0.88;;
74963;SDS011;63521;51.900;4.748;2023-03-04T16:23:08;2.50;;;0.90;;
74963;SDS011;63521;51.900;4.748;2023-03-04T16:25:35;4.25;;;1.10;;
74963;SDS011;63521;51.900;4.748;2023-03-04T16:28:00;1.27;;;0.82;;
74963;SDS011;63521;51.900;4.748;2023-03-04T16:30:29;1.45;;;0.90;;
74963;SDS011;63521;51.900;4.748;2023-03-04T16:32:55;1.67;;;0.63;;
74963;SDS011;63521;51.900;4.748;2023-03-04T16:35:20;2.00;;;0.73;;
74963;SDS011;63521;51.900;4.748;2023-03-04T16:37:50;2.45;;;0.90;;
74963;SDS011;63521;51.900;4.748;2023-03-04T16:40:16;1.55;;;0.70;;
74963;SDS011;63521;51.900;4.748;2023-03-04T16:42:50;1.27;;;0.60;;
74963;SDS011;63521;51.900;4.748;2023-03-04T16:45:16;2.40;;;1.08;;
74963;SDS011;63521;51.900;4.748;2023-03-04T16:47:44;1.02;;;0.60;;
74963;SDS011;63521;51.900;4.748;2023-03-04T16:50:11;2.80;;;0.80;;
74963;SDS011;63521;51.900;4.748;2023-03-04T16:52:45;1.70;;;0.65;;
74963;SDS011;63521;51.900;4.748;2023-03-04T16:55:22;3.80;;;1.08;;
74963;SDS011;63521;51.900;4.748;2023-03-04T17:01:29;0.98;;;0.80;;
74963;SDS011;63521;51.900;4.748;2023-03-04T17:03:55;0.60;;;0.60;;
74963;SDS011;63521;51.900;4.748;2023-03-04T17:06:21;2.42;;;0.80;;
74963;SDS011;63521;51.900;4.748;2023-03-04T17:08:47;2.45;;;0.80;;
74963;SDS011;63521;51.900;4.748;2023-03-04T17:11:14;1.40;;;0.70;;
74963;SDS011;63521;51.900;4.748;2023-03-04T17:13:42;0.98;;;0.70;;
74963;SDS011;63521;51.900;4.748;2023-03-04T17:16:07;2.35;;;0.77;;
74963;SDS011;63521;51.900;4.748;2023-03-04T17:18:34;0.90;;;0.80;;
74963;SDS011;63521;51.900;4.748;2023-03-04T17:21:00;3.10;;;1.00;;